Cahone, Colorado
Current Conditions -  °F | °C
As of 10:53 AM on Monday 22 Dec 2014 (Local Time) from KCEZ Reporting Station
Light Rain Light Rain  
Wind Chill: 33°   Ceiling: 3600
Heat Index: 39°   Visibility: 10mi
Dew Point: 35°   Wind: 9mph
Humidity: 86%   Direction: 270°W
Pressure: 29.91"   Gusts: NA
Location:  37.66°N, 108.81°W
Report Text: KCEZ 221753Z AUTO 27008KT 10SM -RA BKN036 OVC050 04/02 A2991 RMK AO2 SLP117 P0000 60001 T00390017 10039 20006 56005
Loading
Personal Weather Stations






























Interactive Weather Map New forecast layout! Learn more

10-Day Weather Forecast

Advertisements
Track Severe Weather on mobile